createdAt,value
2023-01-17T00:02:08.348Z,3.70
2023-01-17T00:04:53.489Z,3.70
2023-01-17T00:07:55.266Z,3.70
2023-01-17T00:10:27.100Z,3.70
2023-01-17T00:12:57.354Z,3.70
2023-01-17T00:15:26.089Z,3.70
2023-01-17T00:17:54.530Z,3.70
2023-01-17T00:20:44.599Z,3.70
2023-01-17T00:23:34.631Z,3.70
2023-01-17T00:26:04.594Z,3.70
2023-01-17T00:28:34.049Z,3.70
2023-01-17T00:31:01.238Z,3.70
2023-01-17T00:33:28.379Z,3.60
2023-01-17T00:35:57.509Z,3.50
2023-01-17T00:38:25.710Z,3.50
2023-01-17T00:40:52.994Z,3.50
2023-01-17T00:43:41.366Z,3.50
2023-01-17T00:46:26.972Z,3.50
2023-01-17T00:49:12.254Z,3.50
2023-01-17T00:51:58.164Z,3.40
2023-01-17T00:54:43.399Z,3.40
2023-01-17T00:57:28.931Z,3.40
2023-01-17T01:00:15.748Z,3.40
2023-01-17T01:03:00.846Z,3.40
2023-01-17T01:05:46.161Z,3.40
2023-01-17T01:08:37.260Z,3.50
2023-01-17T01:11:27.925Z,3.40
2023-01-17T01:14:13.999Z,3.50
2023-01-17T01:17:00.959Z,3.40
2023-01-17T01:19:46.680Z,3.40
2023-01-17T01:22:32.378Z,3.30
2023-01-17T01:25:17.899Z,3.30
2023-01-17T01:28:03.735Z,3.30
2023-01-17T01:30:49.447Z,3.30
2023-01-17T01:33:20.738Z,3.30
2023-01-17T01:35:50.560Z,3.20
2023-01-17T01:38:19.457Z,3.20
2023-01-17T01:40:49.463Z,3.20
2023-01-17T01:43:19.833Z,3.20
2023-01-17T01:45:52.635Z,3.20
2023-01-17T01:48:35.081Z,3.20
2023-01-17T01:51:06.526Z,3.20
2023-01-17T01:53:38.388Z,3.30
2023-01-17T01:56:09.112Z,3.30
2023-01-17T01:58:38.238Z,3.30
2023-01-17T02:01:08.154Z,3.30
2023-01-17T02:03:38.912Z,3.30
2023-01-17T02:06:16.605Z,3.30
2023-01-17T02:08:45.147Z,3.30
2023-01-17T02:11:13.266Z,3.30
2023-01-17T02:13:41.770Z,3.30
2023-01-17T02:16:21.862Z,3.30
2023-01-17T02:19:00.601Z,3.20
2023-01-17T02:21:32.847Z,3.30
2023-01-17T02:24:36.662Z,3.20
2023-01-17T02:27:23.068Z,3.20
2023-01-17T02:30:14.506Z,3.20
2023-01-17T02:33:07.712Z,3.10
2023-01-17T02:35:43.217Z,3.10
2023-01-17T02:38:22.977Z,3.00
2023-01-17T02:40:56.292Z,3.10
2023-01-17T02:43:25.833Z,3.10
2023-01-17T02:45:53.759Z,3.10
2023-01-17T02:48:25.793Z,3.10
2023-01-17T02:51:12.759Z,3.10
2023-01-17T02:53:53.960Z,3.10
2023-01-17T02:56:35.366Z,3.10
2023-01-17T02:59:13.594Z,3.10
2023-01-17T03:01:49.548Z,3.00
2023-01-17T03:04:22.721Z,3.10
2023-01-17T03:06:56.411Z,3.10
2023-01-17T03:09:26.578Z,3.10
2023-01-17T03:11:54.834Z,3.20
2023-01-17T03:14:22.723Z,3.20
2023-01-17T03:16:50.786Z,3.20
2023-01-17T03:19:20.045Z,3.20
2023-01-17T03:21:49.278Z,3.30
2023-01-17T03:24:17.218Z,3.20
2023-01-17T03:26:47.551Z,3.20
2023-01-17T03:29:16.407Z,3.20
2023-01-17T03:31:44.279Z,3.20
2023-01-17T03:34:12.210Z,3.20
2023-01-17T03:36:41.450Z,3.20
2023-01-17T03:39:09.475Z,3.10
2023-01-17T03:41:37.311Z,3.10
2023-01-17T03:44:05.674Z,3.00
2023-01-17T03:46:33.609Z,3.00
2023-01-17T03:49:01.426Z,3.00
2023-01-17T03:51:29.389Z,3.00
2023-01-17T03:53:58.652Z,3.00
2023-01-17T03:56:26.534Z,3.00
2023-01-17T03:58:54.683Z,3.00
2023-01-17T04:01:22.656Z,3.00
2023-01-17T04:03:50.702Z,3.00
2023-01-17T04:06:18.608Z,2.90
2023-01-17T04:08:46.609Z,2.90
2023-01-17T04:11:15.922Z,3.00
2023-01-17T04:13:43.821Z,2.90
2023-01-17T04:16:14.541Z,2.90
2023-01-17T04:18:42.722Z,2.90
2023-01-17T04:21:10.626Z,2.90
2023-01-17T04:23:38.526Z,2.80
2023-01-17T04:26:06.610Z,2.80
2023-01-17T04:28:35.775Z,2.70
2023-01-17T04:31:03.753Z,2.70
2023-01-17T04:33:31.747Z,2.70
2023-01-17T04:35:59.635Z,2.70
2023-01-17T04:38:27.576Z,2.60
2023-01-17T04:40:55.424Z,2.60
2023-01-17T04:43:23.257Z,2.60
2023-01-17T04:45:57.217Z,2.60
2023-01-17T04:48:26.031Z,2.60
2023-01-17T04:51:00.317Z,2.60
2023-01-17T04:53:28.560Z,2.70
2023-01-17T04:55:56.601Z,2.70
2023-01-17T04:58:24.654Z,2.70
2023-01-17T05:00:52.649Z,2.70
2023-01-17T05:03:23.277Z,2.70
2023-01-17T05:05:51.191Z,2.70
2023-01-17T05:08:19.095Z,2.80
2023-01-17T05:10:47.222Z,2.80
2023-01-17T05:13:15.652Z,2.80
2023-01-17T05:15:43.709Z,2.80
2023-01-17T05:18:13.753Z,2.70
2023-01-17T05:20:43.249Z,2.70
2023-01-17T05:23:11.664Z,2.70
2023-01-17T05:25:44.378Z,2.70
2023-01-17T05:28:13.612Z,2.70
2023-01-17T05:30:42.020Z,2.60
2023-01-17T05:33:10.513Z,2.60
2023-01-17T05:35:38.818Z,2.60
2023-01-17T05:38:08.084Z,2.60
2023-01-17T05:40:36.355Z,2.60
2023-01-17T05:43:04.481Z,2.60
2023-01-17T05:45:33.745Z,2.60
2023-01-17T05:48:02.159Z,2.50
2023-01-17T05:50:32.186Z,2.50
2023-01-17T05:53:01.740Z,2.50
2023-01-17T05:55:32.022Z,2.50
2023-01-17T05:58:00.567Z,2.50
2023-01-17T06:00:29.405Z,2.50
2023-01-17T06:02:58.861Z,2.40
2023-01-17T06:05:27.672Z,2.50
2023-01-17T06:07:56.488Z,2.40
2023-01-17T06:10:25.843Z,2.40
2023-01-17T06:13:04.753Z,2.40
2023-01-17T06:15:32.704Z,2.40
2023-01-17T06:18:05.698Z,2.50
2023-01-17T06:20:34.328Z,2.50
2023-01-17T06:23:04.179Z,2.50
2023-01-17T06:25:32.193Z,2.50
2023-01-17T06:28:00.087Z,2.50
2023-01-17T06:30:29.368Z,2.50
2023-01-17T06:32:57.239Z,2.50
2023-01-17T06:35:25.309Z,2.50
2023-01-17T06:37:55.260Z,2.50
2023-01-17T06:40:23.517Z,2.50
2023-01-17T06:42:51.830Z,2.50
2023-01-17T06:45:20.228Z,2.50
2023-01-17T06:47:49.834Z,2.50
2023-01-17T06:50:18.138Z,2.50
2023-01-17T06:52:56.129Z,2.50
2023-01-17T06:55:24.205Z,2.50
2023-01-17T06:57:52.087Z,2.50
2023-01-17T07:00:20.860Z,2.50
2023-01-17T07:02:51.426Z,2.50
2023-01-17T07:05:19.996Z,2.40
2023-01-17T07:07:48.342Z,2.40
2023-01-17T07:10:16.926Z,2.40
2023-01-17T07:12:44.819Z,2.40
2023-01-17T07:15:13.354Z,2.40
2023-01-17T07:17:41.406Z,2.40
2023-01-17T07:20:11.861Z,2.40
2023-01-17T07:22:39.780Z,2.40
2023-01-17T07:25:08.548Z,2.40
2023-01-17T07:27:36.455Z,2.40
2023-01-17T07:30:04.675Z,2.30
2023-01-17T07:32:32.528Z,2.30
2023-01-17T07:35:00.375Z,2.30
2023-01-17T07:37:29.572Z,2.30
2023-01-17T07:39:57.445Z,2.30
2023-01-17T07:42:25.312Z,2.30
2023-01-17T07:44:53.256Z,2.30
2023-01-17T07:47:21.351Z,2.40
2023-01-17T07:49:49.358Z,2.40
2023-01-17T07:52:18.345Z,2.40
2023-01-17T07:54:47.791Z,2.50
2023-01-17T07:57:15.829Z,2.50
2023-01-17T07:59:43.878Z,2.50
2023-01-17T08:02:18.788Z,2.50
2023-01-17T08:04:47.313Z,2.50
2023-01-17T08:07:15.578Z,2.50
2023-01-17T08:09:44.804Z,2.50
2023-01-17T08:12:14.113Z,2.50
2023-01-17T08:14:42.044Z,2.50
2023-01-17T08:17:12.581Z,2.50
2023-01-17T08:19:40.742Z,2.50
2023-01-17T08:22:08.831Z,2.50
2023-01-17T08:24:37.500Z,2.50
2023-01-17T08:27:05.717Z,2.50
2023-01-17T08:29:35.173Z,2.50
2023-01-17T08:32:03.173Z,2.60
2023-01-17T08:34:33.685Z,2.50
2023-01-17T08:37:01.563Z,2.60
2023-01-17T08:39:29.404Z,2.60
2023-01-17T08:41:57.637Z,2.60
2023-01-17T08:44:25.641Z,2.70
2023-01-17T08:46:54.926Z,2.70
2023-01-17T08:49:22.857Z,2.70
2023-01-17T08:51:51.749Z,2.70
2023-01-17T08:54:19.960Z,2.70
2023-01-17T08:56:47.816Z,2.70
2023-01-17T08:59:16.015Z,2.70
2023-01-17T09:01:45.887Z,2.70
2023-01-17T09:04:16.096Z,2.70
2023-01-17T09:06:48.203Z,2.70
2023-01-17T09:09:17.924Z,2.70
2023-01-17T09:11:45.800Z,2.70
2023-01-17T09:14:14.120Z,2.80
2023-01-17T09:16:42.310Z,2.80
2023-01-17T09:19:10.618Z,2.80
2023-01-17T09:21:39.789Z,2.80
2023-01-17T09:24:08.025Z,2.80
2023-01-17T09:26:36.116Z,2.80
2023-01-17T09:29:04.020Z,2.80
2023-01-17T09:31:32.100Z,2.80
2023-01-17T09:34:00.256Z,2.80
2023-01-17T09:36:31.851Z,2.80
2023-01-17T09:39:01.799Z,2.80
2023-01-17T09:41:31.827Z,2.80
2023-01-17T09:44:06.265Z,2.80
2023-01-17T09:46:42.291Z,2.80
2023-01-17T09:49:15.395Z,2.90
2023-01-17T09:51:43.636Z,2.90
2023-01-17T09:54:22.747Z,2.90
2023-01-17T09:56:59.813Z,2.90
2023-01-17T09:59:35.808Z,2.90
2023-01-17T10:02:17.115Z,3.00
2023-01-17T10:05:12.610Z,3.00
2023-01-17T10:07:52.364Z,3.00
2023-01-17T10:10:32.988Z,3.00
2023-01-17T10:13:09.914Z,3.00
2023-01-17T10:16:07.455Z,3.00
2023-01-17T10:19:11.885Z,2.90
2023-01-17T10:22:02.208Z,2.90
2023-01-17T10:24:57.295Z,2.90
2023-01-17T10:27:30.187Z,2.90
2023-01-17T10:29:58.284Z,2.90
2023-01-17T10:32:30.661Z,3.00
2023-01-17T10:35:06.244Z,3.00
2023-01-17T10:37:41.278Z,3.00
2023-01-17T10:40:17.338Z,3.00
2023-01-17T10:42:53.107Z,3.10
2023-01-17T10:45:28.250Z,3.10
2023-01-17T10:48:04.334Z,3.10
2023-01-17T10:50:49.429Z,3.10
2023-01-17T10:53:34.110Z,3.10
2023-01-17T10:56:03.159Z,3.20
2023-01-17T10:58:32.767Z,3.20
2023-01-17T11:01:03.009Z,3.20
2023-01-17T11:03:32.071Z,3.20
2023-01-17T11:06:17.236Z,3.30
2023-01-17T11:08:53.840Z,3.30
2023-01-17T11:11:24.277Z,3.30
2023-01-17T11:13:55.780Z,3.40
2023-01-17T11:16:27.708Z,3.40
2023-01-17T11:19:09.346Z,3.40
2023-01-17T11:21:39.606Z,3.40
2023-01-17T11:24:13.129Z,3.50
2023-01-17T11:26:49.300Z,3.50
2023-01-17T11:29:34.699Z,3.60
2023-01-17T11:32:30.989Z,3.60
2023-01-17T11:35:16.987Z,3.70
2023-01-17T11:37:53.519Z,3.70
2023-01-17T11:40:30.233Z,3.70
2023-01-17T11:43:18.568Z,3.80
2023-01-17T11:46:00.512Z,3.80
2023-01-17T11:48:35.378Z,3.90
2023-01-17T11:51:04.972Z,4.00
2023-01-17T11:53:35.287Z,4.00
2023-01-17T11:56:06.857Z,4.10
2023-01-17T11:58:37.189Z,4.10
2023-01-17T12:01:32.504Z,4.20
2023-01-17T12:04:18.510Z,4.20
2023-01-17T12:06:58.060Z,4.20
2023-01-17T12:09:36.473Z,4.30
2023-01-17T12:12:28.922Z,4.30
2023-01-17T12:15:07.429Z,4.40
2023-01-17T12:17:54.382Z,4.50
2023-01-17T12:20:28.783Z,4.60
2023-01-17T12:23:21.490Z,4.60
2023-01-17T12:25:57.583Z,4.60
2023-01-17T12:29:01.525Z,4.70
2023-01-17T12:31:34.376Z,4.70
2023-01-17T12:34:16.837Z,4.70
2023-01-17T12:36:49.777Z,4.70
2023-01-17T12:39:22.218Z,4.70
2023-01-17T12:41:58.697Z,4.70
2023-01-17T12:44:39.020Z,4.70
2023-01-17T12:47:07.468Z,4.60
2023-01-17T12:49:46.310Z,4.60
2023-01-17T12:52:22.510Z,4.60
2023-01-17T12:54:54.249Z,4.60
2023-01-17T12:57:25.915Z,4.60
2023-01-17T13:00:00.631Z,4.70
2023-01-17T13:02:37.047Z,4.70
2023-01-17T13:05:11.455Z,4.70
2023-01-17T13:07:46.821Z,4.80
2023-01-17T13:10:25.265Z,4.70
2023-01-17T13:12:55.259Z,4.70
2023-01-17T13:15:26.917Z,4.70
2023-01-17T13:18:04.103Z,4.70
2023-01-17T13:20:44.364Z,4.70
2023-01-17T13:23:22.263Z,4.60
2023-01-17T13:25:51.882Z,4.60
2023-01-17T13:28:31.088Z,4.60
2023-01-17T13:31:27.748Z,4.60
2023-01-17T13:34:21.952Z,4.60
2023-01-17T13:37:04.615Z,4.60
2023-01-17T13:40:01.306Z,4.60
2023-01-17T13:42:40.075Z,4.60
2023-01-17T13:45:09.386Z,4.60
2023-01-17T13:47:41.483Z,4.60
2023-01-17T13:50:42.745Z,4.60
2023-01-17T13:53:59.388Z,4.60
2023-01-17T13:56:36.088Z,4.60
2023-01-17T13:59:29.092Z,4.60
2023-01-17T14:01:57.333Z,4.60
2023-01-17T14:04:26.774Z,4.50
2023-01-17T14:06:59.361Z,4.50
2023-01-17T14:09:31.580Z,4.50
2023-01-17T14:12:06.966Z,4.50
2023-01-17T14:14:46.200Z,4.50
2023-01-17T14:17:38.012Z,4.40
2023-01-17T14:20:41.699Z,4.40
2023-01-17T14:23:28.323Z,4.40
2023-01-17T14:26:00.173Z,4.40
2023-01-17T14:28:33.233Z,4.40
2023-01-17T14:31:08.601Z,4.40
2023-01-17T14:33:39.519Z,4.40
2023-01-17T14:36:13.394Z,4.30
2023-01-17T14:38:44.486Z,4.40
2023-01-17T14:41:18.855Z,4.40
2023-01-17T14:43:49.987Z,4.40
2023-01-17T14:46:23.567Z,4.40
2023-01-17T14:48:52.091Z,4.50
2023-01-17T14:51:22.650Z,4.50
2023-01-17T14:53:55.428Z,4.50
2023-01-17T14:56:24.273Z,4.50
2023-01-17T14:59:07.419Z,4.60
2023-01-17T15:01:36.201Z,4.60
2023-01-17T15:04:04.191Z,4.60
2023-01-17T15:06:38.884Z,4.60
2023-01-17T15:09:11.834Z,4.70
2023-01-17T15:11:40.271Z,4.70
2023-01-17T15:14:14.384Z,4.70
2023-01-17T15:16:43.324Z,4.70
2023-01-17T15:19:13.255Z,4.70
2023-01-17T15:21:43.692Z,4.60
2023-01-17T15:24:17.713Z,4.60
2023-01-17T15:26:46.064Z,4.60
2023-01-17T15:29:23.185Z,4.50
2023-01-17T15:31:53.951Z,4.50
2023-01-17T15:34:29.326Z,4.40
2023-01-17T15:36:59.571Z,4.40
2023-01-17T15:39:31.100Z,4.30
2023-01-17T15:42:01.529Z,4.30
2023-01-17T15:44:47.411Z,4.20
2023-01-17T15:47:31.000Z,4.20
2023-01-17T15:49:59.888Z,4.10
2023-01-17T15:52:28.441Z,4.10
2023-01-17T15:55:00.733Z,4.10
2023-01-17T15:57:30.338Z,4.00
2023-01-17T16:00:07.736Z,4.00
2023-01-17T16:02:42.751Z,4.00
2023-01-17T16:05:33.134Z,3.90
2023-01-17T16:08:27.367Z,3.90
2023-01-17T16:10:59.679Z,3.90
2023-01-17T16:13:27.670Z,3.90
2023-01-17T16:16:14.198Z,3.90
2023-01-17T16:18:42.846Z,3.90
2023-01-17T16:21:25.990Z,3.90
2023-01-17T16:23:54.588Z,3.80
2023-01-17T16:26:23.088Z,3.80
2023-01-17T16:28:51.533Z,3.80
2023-01-17T16:31:21.049Z,3.70
2023-01-17T16:33:50.590Z,3.70
2023-01-17T16:36:19.595Z,3.70
2023-01-17T16:38:50.829Z,3.70
2023-01-17T16:41:19.364Z,3.70
2023-01-17T16:43:48.210Z,3.60
2023-01-17T16:46:16.295Z,3.60
2023-01-17T16:48:46.401Z,3.60
2023-01-17T16:51:14.352Z,3.60
2023-01-17T16:53:42.281Z,3.50
2023-01-17T16:56:13.566Z,3.50
2023-01-17T16:58:42.064Z,3.50
2023-01-17T17:01:11.206Z,3.40
2023-01-17T17:03:39.400Z,3.40
2023-01-17T17:06:09.198Z,3.40
2023-01-17T17:08:38.137Z,3.40
2023-01-17T17:11:12.910Z,3.40
2023-01-17T17:13:41.481Z,3.40
2023-01-17T17:16:14.813Z,3.40
2023-01-17T17:18:43.608Z,3.40
2023-01-17T17:21:13.493Z,3.30
2023-01-17T17:23:41.629Z,3.30
2023-01-17T17:26:09.753Z,3.20
2023-01-17T17:28:37.647Z,3.20
2023-01-17T17:31:10.342Z,3.20
2023-01-17T17:33:38.736Z,3.10
2023-01-17T17:36:10.021Z,3.00
2023-01-17T17:38:50.998Z,3.00
2023-01-17T17:41:21.196Z,3.00
2023-01-17T17:43:49.580Z,3.00
2023-01-17T17:46:17.672Z,3.00
2023-01-17T17:48:45.649Z,3.00
2023-01-17T17:51:22.947Z,3.00
2023-01-17T17:53:54.536Z,3.00
2023-01-17T17:56:22.818Z,2.90
2023-01-17T17:58:51.234Z,2.90
2023-01-17T18:01:19.343Z,2.80
2023-01-17T18:03:47.434Z,2.80
2023-01-17T18:06:17.382Z,2.80
2023-01-17T18:08:45.962Z,2.70
2023-01-17T18:11:18.709Z,2.70
2023-01-17T18:13:50.260Z,2.70
2023-01-17T18:16:20.893Z,2.70
2023-01-17T18:18:50.859Z,2.70
2023-01-17T18:21:23.511Z,2.70
2023-01-17T18:23:54.398Z,2.70
2023-01-17T18:26:25.445Z,2.70
2023-01-17T18:28:54.147Z,2.70
2023-01-17T18:31:24.247Z,2.70
2023-01-17T18:33:52.520Z,2.70
2023-01-17T18:36:20.474Z,2.70
2023-01-17T18:38:49.027Z,2.70
2023-01-17T18:41:19.137Z,2.70
2023-01-17T18:43:48.697Z,2.60
2023-01-17T18:46:18.388Z,2.70
2023-01-17T18:48:46.769Z,2.60
2023-01-17T18:51:16.593Z,2.60
2023-01-17T18:53:46.627Z,2.60
2023-01-17T18:56:18.524Z,2.60
2023-01-17T18:58:49.331Z,2.60
2023-01-17T19:01:19.980Z,2.60
2023-01-17T19:03:49.985Z,2.60
2023-01-17T19:06:20.414Z,2.50
2023-01-17T19:08:49.378Z,2.50
2023-01-17T19:11:17.414Z,2.50
2023-01-17T19:13:45.476Z,2.50
2023-01-17T19:16:17.017Z,2.50
2023-01-17T19:18:44.918Z,2.50
2023-01-17T19:21:14.744Z,2.50
2023-01-17T19:23:43.559Z,2.50
2023-01-17T19:26:13.754Z,2.50
2023-01-17T19:28:43.282Z,2.40
2023-01-17T19:31:13.764Z,2.40
2023-01-17T19:33:45.205Z,2.40
2023-01-17T19:36:16.964Z,2.40
2023-01-17T19:38:55.237Z,2.40
2023-01-17T19:41:31.061Z,2.30
2023-01-17T19:44:00.781Z,2.30
2023-01-17T19:46:29.424Z,2.30
2023-01-17T19:49:00.614Z,2.40
2023-01-17T19:51:29.877Z,2.40
2023-01-17T19:53:59.165Z,2.40
2023-01-17T19:56:28.059Z,2.40
2023-01-17T19:59:00.505Z,2.40
2023-01-17T20:01:30.587Z,2.40
2023-01-17T20:04:00.985Z,2.40
2023-01-17T20:06:31.018Z,2.40
2023-01-17T20:08:59.257Z,2.40
2023-01-17T20:11:28.449Z,2.40
2023-01-17T20:13:58.257Z,2.40
2023-01-17T20:16:27.689Z,2.40
2023-01-17T20:18:55.914Z,2.40
2023-01-17T20:21:26.774Z,2.40
2023-01-17T20:23:55.548Z,2.40
2023-01-17T20:26:29.145Z,2.30
2023-01-17T20:28:57.176Z,2.30
2023-01-17T20:31:26.714Z,2.30
2023-01-17T20:33:56.172Z,2.30
2023-01-17T20:36:31.164Z,2.30
2023-01-17T20:38:59.083Z,2.20
2023-01-17T20:41:30.896Z,2.20
2023-01-17T20:44:00.312Z,2.20
2023-01-17T20:46:31.182Z,2.20
2023-01-17T20:49:01.087Z,2.20
2023-01-17T20:51:30.822Z,2.20
2023-01-17T20:54:00.812Z,2.30
2023-01-17T20:56:30.163Z,2.30
2023-01-17T20:58:58.180Z,2.30
2023-01-17T21:01:26.198Z,2.30
2023-01-17T21:03:54.189Z,2.30
2023-01-17T21:06:24.216Z,2.30
2023-01-17T21:08:53.864Z,2.30
2023-01-17T21:11:24.101Z,2.30
2023-01-17T21:13:52.815Z,2.20
2023-01-17T21:16:22.705Z,2.20
2023-01-17T21:18:52.259Z,2.20
2023-01-17T21:21:22.787Z,2.20
2023-01-17T21:23:55.106Z,2.20
2023-01-17T21:26:25.576Z,2.20
2023-01-17T21:28:54.079Z,2.20
2023-01-17T21:31:24.445Z,2.20
2023-01-17T21:33:54.585Z,2.20
2023-01-17T21:36:25.072Z,2.20
2023-01-17T21:38:57.027Z,2.20
2023-01-17T21:41:28.380Z,2.20
2023-01-17T21:43:56.949Z,2.20
2023-01-17T21:46:25.403Z,2.20
2023-01-17T21:48:53.393Z,2.20
2023-01-17T21:51:21.863Z,2.20
2023-01-17T21:53:50.097Z,2.20
2023-01-17T21:56:36.878Z,2.20
2023-01-17T21:59:04.820Z,2.20
2023-01-17T22:01:34.507Z,2.10
2023-01-17T22:04:04.448Z,2.10
2023-01-17T22:06:34.407Z,2.10
2023-01-17T22:09:02.540Z,2.10
2023-01-17T22:11:32.531Z,2.00
2023-01-17T22:14:02.564Z,2.00
2023-01-17T22:16:30.451Z,2.00
2023-01-17T22:18:58.780Z,2.00
2023-01-17T22:21:29.163Z,2.00
2023-01-17T22:23:58.588Z,2.00
2023-01-17T22:26:28.778Z,1.90
2023-01-17T22:29:02.288Z,1.90
2023-01-17T22:31:30.295Z,1.90
2023-01-17T22:34:00.519Z,1.90
2023-01-17T22:36:29.037Z,1.90
2023-01-17T22:38:56.984Z,1.90
2023-01-17T22:41:27.968Z,1.90
2023-01-17T22:43:59.410Z,1.90
2023-01-17T22:46:29.083Z,1.80
2023-01-17T22:48:57.755Z,1.80
2023-01-17T22:51:27.430Z,1.80
2023-01-17T22:53:56.730Z,1.80
2023-01-17T22:56:27.371Z,1.80
2023-01-17T22:58:56.867Z,1.80
2023-01-17T23:01:26.465Z,1.80
2023-01-17T23:03:56.024Z,1.80
2023-01-17T23:06:27.275Z,1.80
2023-01-17T23:08:57.320Z,1.80
2023-01-17T23:11:40.864Z,1.80
2023-01-17T23:14:19.146Z,1.80
2023-01-17T23:17:07.345Z,1.80
2023-01-17T23:19:37.175Z,1.80
2023-01-17T23:22:23.328Z,1.70
2023-01-17T23:24:52.646Z,1.70
2023-01-17T23:27:41.398Z,1.70
2023-01-17T23:30:13.492Z,1.70
2023-01-17T23:32:44.650Z,1.70
2023-01-17T23:35:12.792Z,1.70
2023-01-17T23:37:58.105Z,1.70
2023-01-17T23:40:25.999Z,1.70
2023-01-17T23:43:11.189Z,1.70
2023-01-17T23:45:40.742Z,1.60
2023-01-17T23:48:10.673Z,1.60
2023-01-17T23:50:39.145Z,1.60
2023-01-17T23:53:07.877Z,1.60
2023-01-17T23:55:37.261Z,1.60
2023-01-17T23:58:05.420Z,1.60
